Aérodrome :
LOGIN :

S'inscrire | Disclaimer

   EN    FR    IT 

 










Légende :    VFR   VFR Marginal   IFR   IFR Intensif   IFR Très Intensif
Visi : 
Plafond : 
>= 8 km
>= 3000ft
5 à 8 km
1000 à 3000 ft
1500m à 5 km
500 à 1000 ft
800 à 1500m
200 à 500 ft
< 800m
< 200 ft
Symboles :   Orages  Brouillard  Fortes neiges  Fortes précipitations  Vent > 20 kt
SIGMETs :   Divers  Orages  Givrage  Turbulence  Onde Orograph.  Cendres Volcan.







- Altitude de l'aérodrome : 138 ft
- Code IATA : RLG


ETNL - Rostock Laage

DERNIER METAR :
  • 220520Z 36005KT 1300 R27/3100D -DZ BR OVC001 07/06 Q1033 RED RED

METARs EXPIRÉS :
  • 220456Z 35004KT 2200 -DZ BR OVC001 07/07 Q1033 RED
  • 220420Z 34005KT 3500 -DZ BR BKN003 BKN007 08/07 Q1032 YLO
  • 220335Z 31006KT 3400 BR OVC003 08/07 Q1032 YLO
  • 220320Z 30009KT 4000 BR OVC003 08/07 Q1032 YLO
  • 220305Z 31011KT 5000 BR OVC004 08/07 Q1032 YLO

TAF COR TAF ETNL
Valide du 22 à 06h jusqu'au 22 à 15h UTC


220535Z 2206/2215 VRB03KT 0500 FG OVC001
BECMG 2207/2209 21008KZ 2000 BR OVC003
BECMG 2210/2212 21008KT 5000 BR BKN007
BECMG 2212/2214 22007KT 7000 NSW BKN020 BY ETGL
Pas de NOTAMs connus pour ce terrain.



MET'MAP, la Météo Aéronautique d'un coup d'oeil ! - Copyright ORBIFLY Décembre 2007 - Disclaimer

ORBIFLY MET'MAP TEAM :

Programmation & Développement : Alexandra Zaïnal
Conception & Développement : Baudouin d'Aumeries
Co-Programmation & Développement : Marc-Olivier Méhu
Soutien technique & logistique : Manuel Goepfert

Contact : metmap@orbifly.com




SOURCES & CREDITS :

   NOAA